sensor_id;sensor_type;location;lat;lon;timestamp;P1;durP1;ratioP1;P2;durP2;ratioP2
51082;SDS011;37131;42.694;23.350;2022-10-17T00:00:34;9.02;;;2.70;;
51082;SDS011;37131;42.694;23.350;2022-10-17T00:03:00;8.88;;;2.95;;
51082;SDS011;37131;42.694;23.350;2022-10-17T00:05:26;7.65;;;2.97;;
51082;SDS011;37131;42.694;23.350;2022-10-17T00:07:51;10.95;;;2.88;;
51082;SDS011;37131;42.694;23.350;2022-10-17T00:10:17;7.72;;;2.90;;
51082;SDS011;37131;42.694;23.350;2022-10-17T00:12:43;7.88;;;3.17;;
51082;SDS011;37131;42.694;23.350;2022-10-17T00:15:10;10.30;;;3.53;;
51082;SDS011;37131;42.694;23.350;2022-10-17T00:17:38;8.95;;;2.97;;
51082;SDS011;37131;42.694;23.350;2022-10-17T00:20:04;8.07;;;3.05;;
51082;SDS011;37131;42.694;23.350;2022-10-17T00:22:30;8.10;;;2.58;;
51082;SDS011;37131;42.694;23.350;2022-10-17T00:24:55;7.35;;;2.67;;
51082;SDS011;37131;42.694;23.350;2022-10-17T00:27:20;5.85;;;2.75;;
51082;SDS011;37131;42.694;23.350;2022-10-17T00:29:50;6.80;;;2.80;;
51082;SDS011;37131;42.694;23.350;2022-10-17T00:32:16;7.25;;;2.78;;
51082;SDS011;37131;42.694;23.350;2022-10-17T00:34:42;8.32;;;3.03;;
51082;SDS011;37131;42.694;23.350;2022-10-17T00:37:07;10.48;;;2.40;;
51082;SDS011;37131;42.694;23.350;2022-10-17T00:39:33;7.40;;;2.53;;
51082;SDS011;37131;42.694;23.350;2022-10-17T00:41:58;9.48;;;3.03;;
51082;SDS011;37131;42.694;23.350;2022-10-17T00:46:56;10.07;;;3.25;;
51082;SDS011;37131;42.694;23.350;2022-10-17T00:49:27;7.35;;;2.85;;
51082;SDS011;37131;42.694;23.350;2022-10-17T00:51:58;6.78;;;2.65;;
51082;SDS011;37131;42.694;23.350;2022-10-17T00:54:27;6.28;;;2.60;;
51082;SDS011;37131;42.694;23.350;2022-10-17T00:56:57;7.28;;;2.55;;
51082;SDS011;37131;42.694;23.350;2022-10-17T00:59:23;6.97;;;2.45;;
51082;SDS011;37131;42.694;23.350;2022-10-17T01:02:09;6.22;;;2.20;;
51082;SDS011;37131;42.694;23.350;2022-10-17T01:04:38;6.90;;;2.50;;
51082;SDS011;37131;42.694;23.350;2022-10-17T01:07:06;7.43;;;2.20;;
51082;SDS011;37131;42.694;23.350;2022-10-17T01:09:31;6.45;;;3.72;;
51082;SDS011;37131;42.694;23.350;2022-10-17T01:14:57;6.85;;;1.98;;
51082;SDS011;37131;42.694;23.350;2022-10-17T01:17:28;4.30;;;2.50;;
51082;SDS011;37131;42.694;23.350;2022-10-17T01:28:43;9.93;;;2.83;;
51082;SDS011;37131;42.694;23.350;2022-10-17T01:31:16;5.70;;;2.85;;
51082;SDS011;37131;42.694;23.350;2022-10-17T01:44:36;7.22;;;2.97;;
51082;SDS011;37131;42.694;23.350;2022-10-17T01:47:10;12.32;;;2.72;;
51082;SDS011;37131;42.694;23.350;2022-10-17T01:49:40;7.90;;;2.67;;
51082;SDS011;37131;42.694;23.350;2022-10-17T01:52:09;8.68;;;3.00;;
51082;SDS011;37131;42.694;23.350;2022-10-17T01:54:43;7.07;;;2.53;;
51082;SDS011;37131;42.694;23.350;2022-10-17T01:57:18;10.18;;;3.00;;
51082;SDS011;37131;42.694;23.350;2022-10-17T01:59:49;6.53;;;3.25;;
51082;SDS011;37131;42.694;23.350;2022-10-17T02:02:17;6.90;;;2.63;;
51082;SDS011;37131;42.694;23.350;2022-10-17T02:04:45;6.13;;;2.35;;
51082;SDS011;37131;42.694;23.350;2022-10-17T02:07:12;5.97;;;2.67;;
51082;SDS011;37131;42.694;23.350;2022-10-17T02:09:38;4.90;;;2.03;;
51082;SDS011;37131;42.694;23.350;2022-10-17T02:20:24;6.45;;;2.50;;
51082;SDS011;37131;42.694;23.350;2022-10-17T02:28:20;3.72;;;1.92;;
51082;SDS011;37131;42.694;23.350;2022-10-17T02:36:50;8.68;;;2.40;;
51082;SDS011;37131;42.694;23.350;2022-10-17T02:39:19;7.28;;;2.70;;
51082;SDS011;37131;42.694;23.350;2022-10-17T02:41:47;5.50;;;1.83;;
51082;SDS011;37131;42.694;23.350;2022-10-17T02:44:15;5.88;;;2.35;;
51082;SDS011;37131;42.694;23.350;2022-10-17T02:46:41;8.52;;;2.50;;
51082;SDS011;37131;42.694;23.350;2022-10-17T02:49:16;6.63;;;3.00;;
51082;SDS011;37131;42.694;23.350;2022-10-17T02:54:23;6.05;;;2.05;;
51082;SDS011;37131;42.694;23.350;2022-10-17T02:59:43;8.05;;;2.28;;
51082;SDS011;37131;42.694;23.350;2022-10-17T03:02:10;7.55;;;2.30;;
51082;SDS011;37131;42.694;23.350;2022-10-17T03:04:36;7.78;;;2.42;;
51082;SDS011;37131;42.694;23.350;2022-10-17T03:07:02;5.43;;;2.28;;
51082;SDS011;37131;42.694;23.350;2022-10-17T03:09:28;7.05;;;2.40;;
51082;SDS011;37131;42.694;23.350;2022-10-17T03:11:53;6.35;;;2.30;;
51082;SDS011;37131;42.694;23.350;2022-10-17T03:14:19;15.95;;;2.50;;
51082;SDS011;37131;42.694;23.350;2022-10-17T03:16:44;5.00;;;2.00;;
51082;SDS011;37131;42.694;23.350;2022-10-17T03:19:10;7.75;;;2.40;;
51082;SDS011;37131;42.694;23.350;2022-10-17T03:21:35;8.60;;;1.80;;
51082;SDS011;37131;42.694;23.350;2022-10-17T03:24:02;4.15;;;1.77;;
51082;SDS011;37131;42.694;23.350;2022-10-17T03:26:28;3.35;;;1.50;;
51082;SDS011;37131;42.694;23.350;2022-10-17T03:28:53;4.78;;;1.92;;
51082;SDS011;37131;42.694;23.350;2022-10-17T03:31:19;4.80;;;2.05;;
51082;SDS011;37131;42.694;23.350;2022-10-17T03:33:44;4.25;;;1.83;;
51082;SDS011;37131;42.694;23.350;2022-10-17T03:36:12;3.45;;;1.60;;
51082;SDS011;37131;42.694;23.350;2022-10-17T03:38:39;4.90;;;1.80;;
51082;SDS011;37131;42.694;23.350;2022-10-17T03:41:05;4.53;;;1.58;;
51082;SDS011;37131;42.694;23.350;2022-10-17T03:43:30;4.95;;;1.98;;
51082;SDS011;37131;42.694;23.350;2022-10-17T03:45:56;3.50;;;1.63;;
51082;SDS011;37131;42.694;23.350;2022-10-17T03:48:23;7.47;;;2.17;;
51082;SDS011;37131;42.694;23.350;2022-10-17T03:50:48;3.75;;;1.95;;
51082;SDS011;37131;42.694;23.350;2022-10-17T03:53:14;3.90;;;2.10;;
51082;SDS011;37131;42.694;23.350;2022-10-17T03:55:39;5.88;;;1.98;;
51082;SDS011;37131;42.694;23.350;2022-10-17T03:58:05;4.55;;;1.60;;
51082;SDS011;37131;42.694;23.350;2022-10-17T04:00:30;7.38;;;2.40;;
51082;SDS011;37131;42.694;23.350;2022-10-17T04:02:56;3.67;;;1.55;;
51082;SDS011;37131;42.694;23.350;2022-10-17T04:05:22;5.60;;;2.30;;
51082;SDS011;37131;42.694;23.350;2022-10-17T04:07:47;4.50;;;2.08;;
51082;SDS011;37131;42.694;23.350;2022-10-17T04:10:13;5.47;;;2.25;;
51082;SDS011;37131;42.694;23.350;2022-10-17T04:12:38;4.22;;;1.48;;
51082;SDS011;37131;42.694;23.350;2022-10-17T04:15:04;5.80;;;2.17;;
51082;SDS011;37131;42.694;23.350;2022-10-17T04:17:30;4.97;;;1.70;;
51082;SDS011;37131;42.694;23.350;2022-10-17T04:19:55;4.65;;;2.05;;
51082;SDS011;37131;42.694;23.350;2022-10-17T04:22:21;4.53;;;1.42;;
51082;SDS011;37131;42.694;23.350;2022-10-17T04:24:46;4.22;;;1.77;;
51082;SDS011;37131;42.694;23.350;2022-10-17T04:27:11;4.78;;;1.95;;
51082;SDS011;37131;42.694;23.350;2022-10-17T04:29:37;4.22;;;1.80;;
51082;SDS011;37131;42.694;23.350;2022-10-17T04:32:02;6.53;;;1.90;;
51082;SDS011;37131;42.694;23.350;2022-10-17T04:34:28;2.45;;;1.23;;
51082;SDS011;37131;42.694;23.350;2022-10-17T04:36:53;5.07;;;1.75;;
51082;SDS011;37131;42.694;23.350;2022-10-17T04:39:19;4.80;;;1.98;;
51082;SDS011;37131;42.694;23.350;2022-10-17T04:41:44;6.45;;;2.15;;
51082;SDS011;37131;42.694;23.350;2022-10-17T04:44:10;4.63;;;2.00;;
51082;SDS011;37131;42.694;23.350;2022-10-17T04:46:35;10.68;;;2.90;;
51082;SDS011;37131;42.694;23.350;2022-10-17T04:49:01;4.72;;;2.03;;
51082;SDS011;37131;42.694;23.350;2022-10-17T04:51:27;7.63;;;2.63;;
51082;SDS011;37131;42.694;23.350;2022-10-17T04:53:52;4.55;;;2.00;;
51082;SDS011;37131;42.694;23.350;2022-10-17T04:56:19;4.45;;;1.75;;
51082;SDS011;37131;42.694;23.350;2022-10-17T04:58:45;6.53;;;2.63;;
51082;SDS011;37131;42.694;23.350;2022-10-17T05:01:18;7.88;;;2.97;;
51082;SDS011;37131;42.694;23.350;2022-10-17T05:03:45;8.65;;;3.40;;
51082;SDS011;37131;42.694;23.350;2022-10-17T05:06:12;7.00;;;2.45;;
51082;SDS011;37131;42.694;23.350;2022-10-17T05:08:39;2.95;;;1.95;;
51082;SDS011;37131;42.694;23.350;2022-10-17T05:11:13;5.60;;;2.70;;
51082;SDS011;37131;42.694;23.350;2022-10-17T05:13:43;8.15;;;2.70;;
51082;SDS011;37131;42.694;23.350;2022-10-17T05:16:09;6.43;;;2.75;;
51082;SDS011;37131;42.694;23.350;2022-10-17T05:18:34;7.78;;;2.97;;
51082;SDS011;37131;42.694;23.350;2022-10-17T05:21:01;5.00;;;2.00;;
51082;SDS011;37131;42.694;23.350;2022-10-17T05:23:28;3.85;;;2.20;;
51082;SDS011;37131;42.694;23.350;2022-10-17T05:25:54;4.97;;;2.15;;
51082;SDS011;37131;42.694;23.350;2022-10-17T05:28:19;6.72;;;2.33;;
51082;SDS011;37131;42.694;23.350;2022-10-17T05:30:45;14.00;;;2.30;;
51082;SDS011;37131;42.694;23.350;2022-10-17T05:33:10;7.90;;;2.50;;
51082;SDS011;37131;42.694;23.350;2022-10-17T05:35:36;6.72;;;2.53;;
51082;SDS011;37131;42.694;23.350;2022-10-17T05:38:01;7.53;;;3.30;;
51082;SDS011;37131;42.694;23.350;2022-10-17T05:40:26;10.65;;;2.90;;
51082;SDS011;37131;42.694;23.350;2022-10-17T05:42:52;6.80;;;3.40;;
51082;SDS011;37131;42.694;23.350;2022-10-17T05:45:17;6.00;;;2.83;;
51082;SDS011;37131;42.694;23.350;2022-10-17T05:47:43;9.05;;;3.17;;
51082;SDS011;37131;42.694;23.350;2022-10-17T05:50:09;4.03;;;2.20;;
51082;SDS011;37131;42.694;23.350;2022-10-17T05:52:34;8.88;;;2.63;;
51082;SDS011;37131;42.694;23.350;2022-10-17T05:55:00;7.25;;;2.67;;
51082;SDS011;37131;42.694;23.350;2022-10-17T05:57:26;4.55;;;2.17;;
51082;SDS011;37131;42.694;23.350;2022-10-17T05:59:51;9.35;;;2.90;;
51082;SDS011;37131;42.694;23.350;2022-10-17T06:02:17;7.47;;;2.83;;
51082;SDS011;37131;42.694;23.350;2022-10-17T06:04:42;7.50;;;2.80;;
51082;SDS011;37131;42.694;23.350;2022-10-17T06:07:10;7.47;;;3.00;;
51082;SDS011;37131;42.694;23.350;2022-10-17T06:09:37;10.80;;;3.17;;
51082;SDS011;37131;42.694;23.350;2022-10-17T06:12:02;7.80;;;2.67;;
51082;SDS011;37131;42.694;23.350;2022-10-17T06:14:28;5.75;;;2.65;;
51082;SDS011;37131;42.694;23.350;2022-10-17T06:16:54;7.13;;;3.10;;
51082;SDS011;37131;42.694;23.350;2022-10-17T06:19:19;7.78;;;3.67;;
51082;SDS011;37131;42.694;23.350;2022-10-17T06:21:44;6.30;;;2.67;;
51082;SDS011;37131;42.694;23.350;2022-10-17T06:24:10;5.80;;;2.63;;
51082;SDS011;37131;42.694;23.350;2022-10-17T06:26:35;7.32;;;2.72;;
51082;SDS011;37131;42.694;23.350;2022-10-17T06:29:00;5.47;;;3.05;;
51082;SDS011;37131;42.694;23.350;2022-10-17T06:31:26;6.55;;;2.97;;
51082;SDS011;37131;42.694;23.350;2022-10-17T06:33:51;10.15;;;3.08;;
51082;SDS011;37131;42.694;23.350;2022-10-17T06:36:17;9.25;;;2.97;;
51082;SDS011;37131;42.694;23.350;2022-10-17T06:38:42;13.68;;;3.50;;
51082;SDS011;37131;42.694;23.350;2022-10-17T06:41:14;13.77;;;2.92;;
51082;SDS011;37131;42.694;23.350;2022-10-17T06:43:43;8.05;;;3.45;;
51082;SDS011;37131;42.694;23.350;2022-10-17T06:46:13;11.43;;;4.07;;
51082;SDS011;37131;42.694;23.350;2022-10-17T06:48:40;10.93;;;4.13;;
51082;SDS011;37131;42.694;23.350;2022-10-17T06:51:05;11.18;;;3.75;;
51082;SDS011;37131;42.694;23.350;2022-10-17T06:53:33;9.30;;;3.53;;
51082;SDS011;37131;42.694;23.350;2022-10-17T06:55:59;7.60;;;3.05;;
51082;SDS011;37131;42.694;23.350;2022-10-17T06:58:30;7.63;;;3.17;;
51082;SDS011;37131;42.694;23.350;2022-10-17T07:01:00;10.38;;;2.95;;
51082;SDS011;37131;42.694;23.350;2022-10-17T07:03:28;9.98;;;4.15;;
51082;SDS011;37131;42.694;23.350;2022-10-17T07:05:54;11.40;;;4.18;;
51082;SDS011;37131;42.694;23.350;2022-10-17T07:08:20;10.05;;;3.95;;
51082;SDS011;37131;42.694;23.350;2022-10-17T07:10:46;11.70;;;4.50;;
51082;SDS011;37131;42.694;23.350;2022-10-17T07:13:11;9.57;;;4.55;;
51082;SDS011;37131;42.694;23.350;2022-10-17T07:15:37;24.17;;;10.00;;
51082;SDS011;37131;42.694;23.350;2022-10-17T07:18:03;12.18;;;3.70;;
51082;SDS011;37131;42.694;23.350;2022-10-17T07:20:28;9.43;;;3.63;;
51082;SDS011;37131;42.694;23.350;2022-10-17T07:22:54;10.05;;;3.53;;
51082;SDS011;37131;42.694;23.350;2022-10-17T07:25:19;12.48;;;3.38;;
51082;SDS011;37131;42.694;23.350;2022-10-17T07:27:45;6.35;;;2.78;;
51082;SDS011;37131;42.694;23.350;2022-10-17T07:30:12;8.88;;;3.38;;
51082;SDS011;37131;42.694;23.350;2022-10-17T07:32:37;9.00;;;4.00;;
51082;SDS011;37131;42.694;23.350;2022-10-17T07:35:03;8.98;;;3.72;;
51082;SDS011;37131;42.694;23.350;2022-10-17T07:37:28;7.47;;;3.33;;
51082;SDS011;37131;42.694;23.350;2022-10-17T07:39:54;11.32;;;4.35;;
51082;SDS011;37131;42.694;23.350;2022-10-17T07:42:20;7.88;;;3.80;;
51082;SDS011;37131;42.694;23.350;2022-10-17T07:44:46;17.92;;;4.95;;
51082;SDS011;37131;42.694;23.350;2022-10-17T07:47:12;8.45;;;4.00;;
51082;SDS011;37131;42.694;23.350;2022-10-17T07:49:37;11.95;;;4.00;;
51082;SDS011;37131;42.694;23.350;2022-10-17T07:52:08;11.82;;;3.97;;
51082;SDS011;37131;42.694;23.350;2022-10-17T07:54:35;13.82;;;4.55;;
51082;SDS011;37131;42.694;23.350;2022-10-17T07:57:01;15.13;;;4.15;;
51082;SDS011;37131;42.694;23.350;2022-10-17T07:59:26;8.98;;;4.40;;
51082;SDS011;37131;42.694;23.350;2022-10-17T08:01:54;7.75;;;3.85;;
51082;SDS011;37131;42.694;23.350;2022-10-17T08:04:20;14.57;;;4.47;;
51082;SDS011;37131;42.694;23.350;2022-10-17T08:06:45;9.93;;;4.03;;
51082;SDS011;37131;42.694;23.350;2022-10-17T08:09:10;18.55;;;4.55;;
51082;SDS011;37131;42.694;23.350;2022-10-17T08:11:36;12.32;;;3.63;;
51082;SDS011;37131;42.694;23.350;2022-10-17T08:14:02;11.02;;;4.03;;
51082;SDS011;37131;42.694;23.350;2022-10-17T08:16:27;8.48;;;4.15;;
51082;SDS011;37131;42.694;23.350;2022-10-17T08:18:53;12.82;;;4.47;;
51082;SDS011;37131;42.694;23.350;2022-10-17T08:21:18;10.27;;;4.28;;
51082;SDS011;37131;42.694;23.350;2022-10-17T08:23:43;8.50;;;3.47;;
51082;SDS011;37131;42.694;23.350;2022-10-17T08:26:09;8.18;;;4.22;;
51082;SDS011;37131;42.694;23.350;2022-10-17T08:28:37;13.05;;;4.40;;
51082;SDS011;37131;42.694;23.350;2022-10-17T08:31:14;9.82;;;3.78;;
51082;SDS011;37131;42.694;23.350;2022-10-17T08:33:42;7.70;;;3.97;;
51082;SDS011;37131;42.694;23.350;2022-10-17T08:36:09;12.48;;;4.10;;
51082;SDS011;37131;42.694;23.350;2022-10-17T08:38:37;7.90;;;4.00;;
51082;SDS011;37131;42.694;23.350;2022-10-17T08:41:05;13.27;;;4.00;;
51082;SDS011;37131;42.694;23.350;2022-10-17T08:46:34;7.68;;;3.55;;
51082;SDS011;37131;42.694;23.350;2022-10-17T08:49:05;8.45;;;3.25;;
51082;SDS011;37131;42.694;23.350;2022-10-17T08:51:38;5.85;;;3.28;;
51082;SDS011;37131;42.694;23.350;2022-10-17T08:54:13;8.88;;;3.58;;
51082;SDS011;37131;42.694;23.350;2022-10-17T08:56:49;7.40;;;3.20;;
51082;SDS011;37131;42.694;23.350;2022-10-17T08:59:17;6.43;;;3.10;;
51082;SDS011;37131;42.694;23.350;2022-10-17T09:02:01;7.55;;;3.42;;
51082;SDS011;37131;42.694;23.350;2022-10-17T09:18:38;8.00;;;2.40;;
51082;SDS011;37131;42.694;23.350;2022-10-17T09:23:52;9.15;;;2.47;;
51082;SDS011;37131;42.694;23.350;2022-10-17T09:26:20;6.57;;;2.40;;
51082;SDS011;37131;42.694;23.350;2022-10-17T09:28:50;5.93;;;2.03;;
51082;SDS011;37131;42.694;23.350;2022-10-17T09:31:25;7.78;;;2.10;;
51082;SDS011;37131;42.694;23.350;2022-10-17T09:33:55;5.25;;;2.08;;
51082;SDS011;37131;42.694;23.350;2022-10-17T09:36:23;6.57;;;2.28;;
51082;SDS011;37131;42.694;23.350;2022-10-17T09:38:53;4.47;;;1.65;;
51082;SDS011;37131;42.694;23.350;2022-10-17T09:41:22;4.78;;;1.58;;
51082;SDS011;37131;42.694;23.350;2022-10-17T09:43:53;4.93;;;1.70;;
51082;SDS011;37131;42.694;23.350;2022-10-17T09:46:34;4.82;;;1.70;;
51082;SDS011;37131;42.694;23.350;2022-10-17T09:49:04;1.80;;;1.10;;
51082;SDS011;37131;42.694;23.350;2022-10-17T09:51:36;2.20;;;0.90;;
51082;SDS011;37131;42.694;23.350;2022-10-17T09:54:02;1.98;;;0.80;;
51082;SDS011;37131;42.694;23.350;2022-10-17T09:56:52;3.20;;;0.93;;
51082;SDS011;37131;42.694;23.350;2022-10-17T10:02:20;1.83;;;0.70;;
51082;SDS011;37131;42.694;23.350;2022-10-17T10:05:32;5.20;;;1.08;;
51082;SDS011;37131;42.694;23.350;2022-10-17T10:07:40;1.25;;;0.60;;
51082;SDS011;37131;42.694;23.350;2022-10-17T10:10:25;1.73;;;0.85;;
51082;SDS011;37131;42.694;23.350;2022-10-17T10:13:02;1.85;;;0.80;;
51082;SDS011;37131;42.694;23.350;2022-10-17T10:15:32;3.85;;;0.90;;
51082;SDS011;37131;42.694;23.350;2022-10-17T10:18:01;1.25;;;0.50;;
51082;SDS011;37131;42.694;23.350;2022-10-17T10:20:28;2.47;;;0.43;;
51082;SDS011;37131;42.694;23.350;2022-10-17T10:23:13;1.02;;;0.40;;
51082;SDS011;37131;42.694;23.350;2022-10-17T10:25:50;1.30;;;0.50;;
51082;SDS011;37131;42.694;23.350;2022-10-17T10:28:18;1.42;;;0.30;;
51082;SDS011;37131;42.694;23.350;2022-10-17T10:30:47;2.78;;;0.55;;
51082;SDS011;37131;42.694;23.350;2022-10-17T10:33:15;1.27;;;0.60;;
51082;SDS011;37131;42.694;23.350;2022-10-17T10:35:50;5.28;;;0.60;;
51082;SDS011;37131;42.694;23.350;2022-10-17T10:38:20;1.83;;;0.68;;
51082;SDS011;37131;42.694;23.350;2022-10-17T10:40:50;1.15;;;0.57;;
51082;SDS011;37131;42.694;23.350;2022-10-17T10:45:49;1.10;;;0.50;;
51082;SDS011;37131;42.694;23.350;2022-10-17T10:50:48;1.35;;;0.57;;
51082;SDS011;37131;42.694;23.350;2022-10-17T10:55:44;0.82;;;0.35;;
51082;SDS011;37131;42.694;23.350;2022-10-17T10:58:22;1.70;;;0.70;;
51082;SDS011;37131;42.694;23.350;2022-10-17T11:00:55;1.73;;;0.70;;
51082;SDS011;37131;42.694;23.350;2022-10-17T11:03:39;2.13;;;0.50;;
51082;SDS011;37131;42.694;23.350;2022-10-17T11:06:16;1.40;;;0.75;;
51082;SDS011;37131;42.694;23.350;2022-10-17T11:09:01;2.72;;;0.60;;
51082;SDS011;37131;42.694;23.350;2022-10-17T11:11:38;1.20;;;0.50;;
51082;SDS011;37131;42.694;23.350;2022-10-17T11:14:18;0.95;;;0.50;;
51082;SDS011;37131;42.694;23.350;2022-10-17T11:16:55;1.05;;;0.60;;
51082;SDS011;37131;42.694;23.350;2022-10-17T11:19:34;0.80;;;0.50;;
51082;SDS011;37131;42.694;23.350;2022-10-17T11:24:38;1.65;;;0.57;;
51082;SDS011;37131;42.694;23.350;2022-10-17T11:27:10;2.58;;;0.65;;
51082;SDS011;37131;42.694;23.350;2022-10-17T11:29:37;1.27;;;0.55;;
51082;SDS011;37131;42.694;23.350;2022-10-17T11:32:05;2.58;;;1.02;;
51082;SDS011;37131;42.694;23.350;2022-10-17T11:34:39;1.60;;;0.70;;
51082;SDS011;37131;42.694;23.350;2022-10-17T11:37:29;1.02;;;0.50;;
51082;SDS011;37131;42.694;23.350;2022-10-17T11:40:03;1.17;;;0.52;;
51082;SDS011;37131;42.694;23.350;2022-10-17T11:42:40;1.83;;;0.57;;
51082;SDS011;37131;42.694;23.350;2022-10-17T11:45:16;1.35;;;0.43;;
51082;SDS011;37131;42.694;23.350;2022-10-17T11:47:52;1.95;;;0.63;;
51082;SDS011;37131;42.694;23.350;2022-10-17T11:50:31;2.55;;;0.70;;
51082;SDS011;37131;42.694;23.350;2022-10-17T11:53:23;1.48;;;0.55;;
51082;SDS011;37131;42.694;23.350;2022-10-17T11:55:51;3.47;;;0.82;;
51082;SDS011;37131;42.694;23.350;2022-10-17T12:01:16;1.33;;;0.63;;
51082;SDS011;37131;42.694;23.350;2022-10-17T12:04:16;0.63;;;0.35;;
51082;SDS011;37131;42.694;23.350;2022-10-17T12:10:03;2.30;;;0.60;;
51082;SDS011;37131;42.694;23.350;2022-10-17T12:12:10;1.05;;;0.47;;
51082;SDS011;37131;42.694;23.350;2022-10-17T12:14:51;1.13;;;0.60;;
51082;SDS011;37131;42.694;23.350;2022-10-17T12:17:33;2.47;;;0.65;;
51082;SDS011;37131;42.694;23.350;2022-10-17T12:22:48;1.95;;;0.70;;
51082;SDS011;37131;42.694;23.350;2022-10-17T12:25:19;0.57;;;0.30;;
51082;SDS011;37131;42.694;23.350;2022-10-17T12:28:00;2.53;;;0.57;;
51082;SDS011;37131;42.694;23.350;2022-10-17T12:30:27;1.17;;;0.55;;
51082;SDS011;37131;42.694;23.350;2022-10-17T12:35:25;1.55;;;0.50;;
51082;SDS011;37131;42.694;23.350;2022-10-17T12:43:00;1.93;;;0.70;;
51082;SDS011;37131;42.694;23.350;2022-10-17T12:45:48;2.10;;;0.30;;
51082;SDS011;37131;42.694;23.350;2022-10-17T12:56:45;1.33;;;0.50;;
51082;SDS011;37131;42.694;23.350;2022-10-17T12:59:14;1.40;;;0.70;;
51082;SDS011;37131;42.694;23.350;2022-10-17T13:01:42;1.17;;;0.52;;
51082;SDS011;37131;42.694;23.350;2022-10-17T13:04:11;4.60;;;0.90;;
51082;SDS011;37131;42.694;23.350;2022-10-17T13:06:38;2.90;;;0.85;;
51082;SDS011;37131;42.694;23.350;2022-10-17T13:11:50;1.55;;;0.50;;
51082;SDS011;37131;42.694;23.350;2022-10-17T13:14:17;1.10;;;0.50;;
51082;SDS011;37131;42.694;23.350;2022-10-17T13:19:17;0.98;;;0.50;;
51082;SDS011;37131;42.694;23.350;2022-10-17T13:21:56;2.83;;;1.00;;
51082;SDS011;37131;42.694;23.350;2022-10-17T13:26:56;1.40;;;0.70;;
51082;SDS011;37131;42.694;23.350;2022-10-17T13:29:22;1.90;;;0.68;;
51082;SDS011;37131;42.694;23.350;2022-10-17T13:31:53;2.03;;;0.70;;
51082;SDS011;37131;42.694;23.350;2022-10-17T13:34:28;4.35;;;1.00;;
51082;SDS011;37131;42.694;23.350;2022-10-17T13:36:56;3.95;;;1.20;;
51082;SDS011;37131;42.694;23.350;2022-10-17T13:39:24;1.70;;;0.70;;
51082;SDS011;37131;42.694;23.350;2022-10-17T13:41:53;1.35;;;0.50;;
51082;SDS011;37131;42.694;23.350;2022-10-17T13:44:21;1.58;;;0.55;;
51082;SDS011;37131;42.694;23.350;2022-10-17T13:46:49;0.90;;;0.50;;
51082;SDS011;37131;42.694;23.350;2022-10-17T13:52:04;1.60;;;0.65;;
51082;SDS011;37131;42.694;23.350;2022-10-17T13:54:35;1.13;;;0.50;;
51082;SDS011;37131;42.694;23.350;2022-10-17T13:57:16;2.75;;;0.80;;
51082;SDS011;37131;42.694;23.350;2022-10-17T13:59:48;2.08;;;0.85;;
51082;SDS011;37131;42.694;23.350;2022-10-17T14:02:26;2.70;;;0.80;;
51082;SDS011;37131;42.694;23.350;2022-10-17T14:05:15;1.48;;;0.50;;
51082;SDS011;37131;42.694;23.350;2022-10-17T14:10:17;1.98;;;0.70;;
51082;SDS011;37131;42.694;23.350;2022-10-17T14:12:46;3.15;;;0.73;;
51082;SDS011;37131;42.694;23.350;2022-10-17T14:15:12;1.63;;;0.73;;
51082;SDS011;37131;42.694;23.350;2022-10-17T14:17:39;1.38;;;0.70;;
51082;SDS011;37131;42.694;23.350;2022-10-17T14:20:06;3.90;;;0.70;;
51082;SDS011;37131;42.694;23.350;2022-10-17T14:22:40;1.42;;;0.63;;
51082;SDS011;37131;42.694;23.350;2022-10-17T14:25:25;2.05;;;0.70;;
51082;SDS011;37131;42.694;23.350;2022-10-17T14:28:13;1.08;;;0.50;;
51082;SDS011;37131;42.694;23.350;2022-10-17T14:30:43;3.33;;;0.73;;
51082;SDS011;37131;42.694;23.350;2022-10-17T14:33:12;4.03;;;0.80;;
51082;SDS011;37131;42.694;23.350;2022-10-17T14:35:57;2.72;;;0.80;;
51082;SDS011;37131;42.694;23.350;2022-10-17T14:38:25;1.23;;;0.60;;
51082;SDS011;37131;42.694;23.350;2022-10-17T14:41:00;1.63;;;0.60;;
51082;SDS011;37131;42.694;23.350;2022-10-17T14:43:29;1.90;;;1.05;;
51082;SDS011;37131;42.694;23.350;2022-10-17T14:45:57;1.90;;;1.00;;
51082;SDS011;37131;42.694;23.350;2022-10-17T14:48:23;2.63;;;0.88;;
51082;SDS011;37131;42.694;23.350;2022-10-17T14:53:38;2.60;;;0.70;;
51082;SDS011;37131;42.694;23.350;2022-10-17T14:56:17;1.83;;;0.70;;
51082;SDS011;37131;42.694;23.350;2022-10-17T14:58:46;4.65;;;0.80;;
51082;SDS011;37131;42.694;23.350;2022-10-17T15:01:11;1.75;;;0.77;;
51082;SDS011;37131;42.694;23.350;2022-10-17T15:03:37;3.05;;;0.90;;
51082;SDS011;37131;42.694;23.350;2022-10-17T15:06:35;2.25;;;0.95;;
51082;SDS011;37131;42.694;23.350;2022-10-17T15:08:56;2.38;;;0.90;;
51082;SDS011;37131;42.694;23.350;2022-10-17T15:11:22;1.40;;;0.82;;
51082;SDS011;37131;42.694;23.350;2022-10-17T15:13:48;1.75;;;0.73;;
51082;SDS011;37131;42.694;23.350;2022-10-17T15:16:15;1.95;;;0.93;;
51082;SDS011;37131;42.694;23.350;2022-10-17T15:18:44;2.72;;;1.10;;
51082;SDS011;37131;42.694;23.350;2022-10-17T15:21:13;3.33;;;1.05;;
51082;SDS011;37131;42.694;23.350;2022-10-17T15:23:40;3.58;;;1.13;;
51082;SDS011;37131;42.694;23.350;2022-10-17T15:26:13;4.72;;;1.30;;
51082;SDS011;37131;42.694;23.350;2022-10-17T15:28:39;3.13;;;1.00;;
51082;SDS011;37131;42.694;23.350;2022-10-17T15:31:04;1.52;;;0.73;;
51082;SDS011;37131;42.694;23.350;2022-10-17T15:33:30;4.45;;;1.10;;
51082;SDS011;37131;42.694;23.350;2022-10-17T15:35:55;4.80;;;1.30;;
51082;SDS011;37131;42.694;23.350;2022-10-17T15:38:21;2.17;;;0.73;;
51082;SDS011;37131;42.694;23.350;2022-10-17T15:40:46;2.42;;;1.30;;
51082;SDS011;37131;42.694;23.350;2022-10-17T15:43:14;2.88;;;1.17;;
51082;SDS011;37131;42.694;23.350;2022-10-17T15:45:40;5.10;;;1.45;;
51082;SDS011;37131;42.694;23.350;2022-10-17T15:48:05;3.03;;;0.93;;
51082;SDS011;37131;42.694;23.350;2022-10-17T15:50:32;1.92;;;0.80;;
51082;SDS011;37131;42.694;23.350;2022-10-17T15:52:57;6.50;;;1.25;;
51082;SDS011;37131;42.694;23.350;2022-10-17T15:55:23;2.13;;;1.02;;
51082;SDS011;37131;42.694;23.350;2022-10-17T15:57:49;2.78;;;1.30;;
51082;SDS011;37131;42.694;23.350;2022-10-17T16:00:15;1.92;;;0.93;;
51082;SDS011;37131;42.694;23.350;2022-10-17T16:02:44;2.10;;;0.93;;
51082;SDS011;37131;42.694;23.350;2022-10-17T16:05:14;1.67;;;1.08;;
51082;SDS011;37131;42.694;23.350;2022-10-17T16:07:42;4.75;;;1.23;;
51082;SDS011;37131;42.694;23.350;2022-10-17T16:10:10;4.43;;;1.60;;
51082;SDS011;37131;42.694;23.350;2022-10-17T16:12:36;3.50;;;1.23;;
51082;SDS011;37131;42.694;23.350;2022-10-17T16:15:15;2.83;;;1.27;;
51082;SDS011;37131;42.694;23.350;2022-10-17T16:17:49;6.95;;;1.80;;
51082;SDS011;37131;42.694;23.350;2022-10-17T16:20:16;5.88;;;1.40;;
51082;SDS011;37131;42.694;23.350;2022-10-17T16:22:43;3.55;;;1.42;;
51082;SDS011;37131;42.694;23.350;2022-10-17T16:25:22;2.50;;;1.13;;
51082;SDS011;37131;42.694;23.350;2022-10-17T16:27:50;5.35;;;1.58;;
51082;SDS011;37131;42.694;23.350;2022-10-17T16:30:17;6.35;;;1.50;;
51082;SDS011;37131;42.694;23.350;2022-10-17T16:32:44;2.53;;;1.13;;
51082;SDS011;37131;42.694;23.350;2022-10-17T16:35:28;5.80;;;1.90;;
51082;SDS011;37131;42.694;23.350;2022-10-17T16:40:21;4.38;;;1.30;;
51082;SDS011;37131;42.694;23.350;2022-10-17T16:42:46;3.42;;;1.60;;
51082;SDS011;37131;42.694;23.350;2022-10-17T16:45:19;3.08;;;1.40;;
51082;SDS011;37131;42.694;23.350;2022-10-17T16:47:46;3.22;;;1.38;;
51082;SDS011;37131;42.694;23.350;2022-10-17T16:50:12;6.47;;;1.88;;